Time;durP1;ratioP1;P1;durP2;ratioP2;P2;SDS_P1;SDS_P2;PMS_P1;PMS_P2;Temp;Humidity;BMP_temperature;BMP_pressure;BME280_temperature;BME280_humidity;BME280_pressure;Samples;Min_cycle;Max_cycle;Signal;HPM_P1;HPM_P2
2023/01/11 00:01:52;;;;;;;5.78;1.23;;;;;;;14.68;82.28;100702.00;4979769;28;20411;-58
2023/01/11 00:04:19;;;;;;;10.40;1.40;;;;;;;14.87;82.07;100712.56;4997328;28;20054;-65
2023/01/11 00:06:47;;;;;;;6.43;1.40;;;;;;;15.00;81.59;100700.38;4978573;28;20062;-65
2023/01/11 00:09:14;;;;;;;7.82;1.67;;;;;;;15.11;80.85;100707.09;4975357;28;20055;-66
2023/01/11 00:11:42;;;;;;;5.10;1.65;;;;;;;15.04;81.87;100706.03;4990481;28;20126;-66
2023/01/11 00:14:09;;;;;;;5.10;1.40;;;;;;;14.87;82.50;100707.03;4996544;28;20050;-67
2023/01/11 00:16:36;;;;;;;6.38;1.70;;;;;;;14.93;82.51;100702.06;4997431;28;20054;-57
2023/01/11 00:19:04;;;;;;;6.07;1.58;;;;;;;14.83;83.13;100708.06;4996102;28;20133;-67
2023/01/11 00:21:31;;;;;;;7.78;1.50;;;;;;;14.82;83.30;100709.22;4997561;28;20162;-66
2023/01/11 00:23:58;;;;;;;8.98;1.92;;;;;;;14.86;83.16;100705.41;4997566;28;20057;-67
2023/01/11 00:26:26;;;;;;;7.85;2.40;;;;;;;14.92;82.41;100704.06;5005361;28;20058;-66
2023/01/11 00:28:53;;;;;;;7.32;1.55;;;;;;;14.85;83.21;100695.47;4992540;28;20059;-58
2023/01/11 00:31:21;;;;;;;6.97;1.42;;;;;;;15.02;82.95;100700.84;5017827;28;20061;-58
2023/01/11 00:33:48;;;;;;;6.38;1.50;;;;;;;14.90;82.69;100692.50;4978320;28;20523;-57
2023/01/11 00:36:15;;;;;;;7.90;1.60;;;;;;;14.77;83.62;100693.59;4986074;28;20049;-67
2023/01/11 00:38:43;;;;;;;7.45;1.55;;;;;;;14.79;83.43;100698.78;4997663;28;20050;-57
2023/01/11 00:49:30;;;;;;;6.05;1.40;;;;;;;14.91;83.37;100685.78;4997322;28;20054;-55
2023/01/11 00:51:57;;;;;;;7.05;1.48;;;;;;;15.01;83.33;100687.31;4996937;28;20050;-57
2023/01/11 00:54:24;;;;;;;4.95;1.45;;;;;;;15.08;83.32;100668.94;4997026;28;20042;-58
2023/01/11 00:56:51;;;;;;;8.82;1.20;;;;;;;15.02;82.97;100678.66;4995060;28;20058;-58
2023/01/11 00:59:19;;;;;;;6.85;2.38;;;;;;;15.01;83.94;100670.66;5011956;28;20058;-59
2023/01/11 01:01:46;;;;;;;4.00;1.23;;;;;;;14.86;83.85;100663.81;4992192;28;20087;-65
2023/01/11 01:04:13;;;;;;;5.50;1.48;;;;;;;14.92;83.74;100662.44;4997096;28;20054;-65
2023/01/11 01:06:41;;;;;;;4.75;1.27;;;;;;;14.81;84.28;100668.75;4992583;28;20525;-58
2023/01/11 01:09:08;;;;;;;5.78;1.20;;;;;;;14.84;84.37;100666.13;5011568;28;20051;-61
2023/01/11 01:11:35;;;;;;;5.90;1.75;;;;;;;14.92;84.14;100653.31;4994843;28;20070;-58
2023/01/11 01:16:48;;;;;;;4.03;1.13;;;;;;;14.90;84.93;100666.72;4994903;28;20054;-65
2023/01/11 01:19:16;;;;;;;6.47;1.08;;;;;;;14.86;84.45;100671.31;4977638;28;20058;-65
2023/01/11 01:21:43;;;;;;;3.03;0.80;;;;;;;14.74;85.41;100661.00;4990103;28;20053;-65
2023/01/11 01:24:10;;;;;;;4.93;1.17;;;;;;;14.70;86.11;100657.28;4996993;28;20046;-66
2023/01/11 01:26:38;;;;;;;4.15;1.27;;;;;;;14.75;85.54;100648.75;5011159;28;20057;-65
2023/01/11 01:29:05;;;;;;;2.95;1.00;;;;;;;14.71;85.86;100649.78;4963805;28;20054;-65
2023/01/11 01:31:33;;;;;;;4.22;1.10;;;;;;;15.05;84.39;100650.22;4991754;28;20062;-59
2023/01/11 01:34:00;;;;;;;5.45;1.25;;;;;;;15.05;84.04;100649.38;4976897;28;20051;-59
2023/01/11 01:36:28;;;;;;;4.28;0.85;;;;;;;14.84;84.72;100651.44;4969921;28;20069;-56
2023/01/11 01:38:55;;;;;;;4.35;1.00;;;;;;;14.83;85.32;100636.78;4995701;28;20050;-59
2023/01/11 01:41:22;;;;;;;5.20;1.13;;;;;;;14.66;86.25;100640.53;4995980;28;20050;-58
2023/01/11 01:43:50;;;;;;;5.40;0.80;;;;;;;14.55;87.11;100630.22;4996364;28;20049;-57
2023/01/11 01:46:19;;;;;;;3.08;0.70;;;;;;;14.84;85.83;100640.34;4996009;28;20520;-58
2023/01/11 01:48:52;;;;;;;3.78;0.80;;;;;;;14.79;86.40;100630.28;4995879;28;20057;-60
2023/01/11 01:51:25;;;;;;;4.07;1.00;;;;;;;14.76;85.89;100636.53;4990080;28;20047;-58
2023/01/11 01:53:55;;;;;;;3.38;0.68;;;;;;;14.68;86.75;100624.38;4991019;28;20057;-59
2023/01/11 01:56:50;;;;;;;2.83;0.60;;;;;;;14.72;86.29;100632.00;4968992;28;20050;-58
2023/01/11 01:59:19;;;;;;;2.60;0.70;;;;;;;14.56;86.61;100629.06;4977251;28;20066;-59
2023/01/11 02:01:47;;;;;;;1.58;0.70;;;;;;;14.57;87.16;100617.63;4994267;28;20058;-58
2023/01/11 02:04:22;;;;;;;2.92;0.60;;;;;;;14.75;86.41;100631.34;4995061;28;20050;-56
2023/01/11 02:06:53;;;;;;;0.85;0.50;;;;;;;14.92;85.90;100628.34;4976842;28;20043;-54
2023/01/11 02:09:28;;;;;;;1.20;0.65;;;;;;;14.86;85.42;100624.97;4981577;28;20406;-60
2023/01/11 02:11:56;;;;;;;2.92;0.57;;;;;;;14.95;84.88;100633.19;4973250;28;20065;-60
2023/01/11 02:14:24;;;;;;;1.80;0.47;;;;;;;14.99;84.88;100625.81;4993764;28;20046;-57
2023/01/11 02:16:51;;;;;;;2.67;0.60;;;;;;;14.58;86.94;100632.31;4996679;28;20065;-65
2023/01/11 02:19:23;;;;;;;2.60;0.52;;;;;;;14.68;86.96;100635.47;5001014;28;20050;-60
2023/01/11 02:22:11;;;;;;;2.20;0.50;;;;;;;14.74;86.08;100635.25;5002270;28;20062;-58
2023/01/11 02:25:00;;;;;;;0.95;0.40;;;;;;;14.58;87.32;100624.00;5001029;28;20050;-66
2023/01/11 02:27:42;;;;;;;1.13;0.40;;;;;;;14.65;87.17;100627.84;5014856;28;20423;-67
2023/01/11 02:30:19;;;;;;;0.50;0.30;;;;;;;14.72;86.94;100629.22;5000366;28;20054;-58
2023/01/11 02:32:52;;;;;;;1.98;0.73;;;;;;;14.89;85.46;100621.50;4999426;28;20109;-65
2023/01/11 02:35:39;;;;;;;1.67;0.43;;;;;;;15.05;85.04;100619.69;4984073;28;20410;-66
2023/01/11 02:38:23;;;;;;;1.20;0.40;;;;;;;14.99;85.02;100625.81;4983623;28;20105;-65
2023/01/11 02:41:07;;;;;;;0.63;0.30;;;;;;;14.97;83.91;100617.84;5003258;28;20521;-66
2023/01/11 02:46:40;;;;;;;3.22;0.52;;;;;;;15.25;83.25;100607.69;4976187;28;20065;-66
2023/01/11 02:49:15;;;;;;;1.23;0.50;;;;;;;15.18;83.77;100601.09;5008367;28;20065;-66
2023/01/11 02:51:57;;;;;;;1.30;0.40;;;;;;;14.92;84.97;100615.31;4993744;28;20509;-66
2023/01/11 02:54:25;;;;;;;0.95;0.30;;;;;;;15.17;83.99;100600.28;5001731;28;20053;-57
2023/01/11 02:56:56;;;;;;;1.30;0.45;;;;;;;15.02;84.54;100612.06;4984563;28;20050;-65
2023/01/11 02:59:29;;;;;;;1.88;0.40;;;;;;;14.91;85.54;100607.31;5009844;28;20066;-67
2023/01/11 03:01:56;;;;;;;0.95;0.40;;;;;;;14.87;85.31;100621.03;4979121;28;20487;-66
2023/01/11 03:04:28;;;;;;;1.27;0.43;;;;;;;15.08;84.78;100601.56;5002166;28;20544;-66
2023/01/11 03:07:20;;;;;;;1.40;0.45;;;;;;;15.06;84.80;100612.19;4999767;28;20478;-60
2023/01/11 03:10:06;;;;;;;1.58;0.38;;;;;;;14.99;84.85;100614.72;5001782;28;20521;-57
2023/01/11 03:12:51;;;;;;;1.05;0.30;;;;;;;14.85;85.49;100622.56;5001860;28;20061;-58
2023/01/11 03:16:07;;;;;;;1.30;0.30;;;;;;;15.01;84.74;100604.88;4985309;28;20050;-59
2023/01/11 03:19:17;;;;;;;0.80;0.30;;;;;;;15.05;84.45;100593.91;4977526;28;20051;-57
2023/01/11 03:22:03;;;;;;;0.68;0.22;;;;;;;14.99;84.88;100589.75;4949722;28;20051;-59
2023/01/11 03:24:42;;;;;;;0.55;0.13;;;;;;;15.17;84.05;100600.28;4979353;28;20047;-57
2023/01/11 03:27:21;;;;;;;0.20;0.20;;;;;;;15.18;84.24;100601.91;4980255;28;20065;-60
2023/01/11 03:29:52;;;;;;;0.55;0.20;;;;;;;15.08;84.35;100601.56;4979472;28;20128;-59
2023/01/11 03:32:35;;;;;;;2.08;0.50;;;;;;;15.27;83.91;100608.13;5004608;28;20057;-59
2023/01/11 03:35:27;;;;;;;0.90;0.35;;;;;;;15.23;84.62;100609.19;4994027;28;20046;-58
2023/01/11 03:38:10;;;;;;;2.83;0.55;;;;;;;15.12;85.44;100614.38;4974703;28;20070;-59
2023/01/11 03:40:45;;;;;;;3.03;0.30;;;;;;;15.09;85.55;100619.81;4965708;28;20058;-61
2023/01/11 03:43:13;;;;;;;0.93;0.38;;;;;;;15.15;85.43;100618.44;4981206;28;20521;-58
2023/01/11 03:45:49;;;;;;;1.83;0.40;;;;;;;14.99;86.70;100629.41;4998235;28;20057;-58
2023/01/11 03:48:20;;;;;;;1.67;0.30;;;;;;;15.30;85.61;100617.75;5013424;28;20057;-56
2023/01/11 03:50:48;;;;;;;1.88;0.60;;;;;;;15.24;85.33;100616.34;4992125;28;20053;-57
2023/01/11 03:53:17;;;;;;;3.30;0.30;;;;;;;15.13;85.99;100618.75;4997029;28;20057;-58
2023/01/11 03:55:47;;;;;;;0.93;0.17;;;;;;;14.96;86.98;100623.75;4997946;28;20379;-57
2023/01/11 03:58:14;;;;;;;0.93;0.30;;;;;;;14.93;87.44;100625.22;4996820;28;20055;-58
2023/01/11 04:00:42;;;;;;;1.90;0.30;;;;;;;14.84;88.35;100630.06;4997551;28;20054;-58
2023/01/11 04:03:11;;;;;;;1.17;0.20;;;;;;;15.00;87.62;100619.91;4980885;28;20057;-55
2023/01/11 04:05:42;;;;;;;1.48;0.65;;;;;;;14.88;87.25;100616.31;4994638;28;20046;-58
2023/01/11 04:08:10;;;;;;;2.92;1.17;;;;;;;14.95;87.01;100620.16;4968049;28;20058;-58
2023/01/11 04:10:38;;;;;;;1.27;0.43;;;;;;;14.82;87.19;100621.28;4980357;28;20589;-66
2023/01/11 04:13:05;;;;;;;0.73;0.20;;;;;;;14.84;87.67;100637.56;4997096;28;20047;-66
2023/01/11 04:15:33;;;;;;;1.13;0.40;;;;;;;15.00;86.84;100627.44;4997846;28;20061;-66
2023/01/11 04:18:04;;;;;;;2.55;0.17;;;;;;;14.96;87.12;100627.31;4996568;28;20356;-58
2023/01/11 04:20:37;;;;;;;0.65;0.25;;;;;;;14.95;87.07;100620.16;4997640;28;20054;-57
2023/01/11 04:23:07;;;;;;;0.38;0.20;;;;;;;14.98;87.52;100635.28;4997719;28;20057;-59
2023/01/11 04:25:34;;;;;;;1.65;0.20;;;;;;;15.09;86.60;100633.69;4967518;28;20046;-54
2023/01/11 04:28:01;;;;;;;1.00;0.13;;;;;;;15.11;86.57;100614.72;4997568;28;20130;-61
2023/01/11 04:30:28;;;;;;;1.40;0.20;;;;;;;15.10;86.42;100633.34;5011811;28;20058;-61
2023/01/11 04:32:59;;;;;;;1.35;0.60;;;;;;;15.03;86.66;100655.28;4983013;28;20055;-59
2023/01/11 04:35:26;;;;;;;0.82;0.25;;;;;;;14.88;87.47;100650.41;4962799;28;20047;-66
2023/01/11 04:37:55;;;;;;;0.57;0.20;;;;;;;14.85;88.09;100651.13;4997808;28;20081;-66
2023/01/11 04:40:23;;;;;;;0.65;0.20;;;;;;;15.03;87.12;100654.50;4997055;28;20057;-65
2023/01/11 04:42:51;;;;;;;0.20;0.20;;;;;;;14.79;88.48;100660.78;4979705;28;20054;-66
2023/01/11 04:45:18;;;;;;;1.52;0.38;;;;;;;14.71;88.35;100664.47;4978427;28;20051;-65
2023/01/11 04:47:47;;;;;;;2.00;1.02;;;;;;;14.58;88.16;100671.13;4997305;28;20058;-65
2023/01/11 04:50:14;;;;;;;2.15;0.45;;;;;;;14.54;88.13;100667.41;4979873;28;20065;-66
2023/01/11 04:52:42;;;;;;;1.35;0.47;;;;;;;14.47;89.13;100683.78;4996076;28;20054;-66
2023/01/11 04:55:09;;;;;;;0.57;0.20;;;;;;;14.65;88.84;100685.25;4979506;28;20126;-55
2023/01/11 04:57:36;;;;;;;1.73;0.30;;;;;;;14.43;87.17;100697.53;4996998;28;20058;-57
2023/01/11 05:00:09;;;;;;;0.63;0.20;;;;;;;14.08;89.60;100706.41;4959546;28;20065;-66
2023/01/11 05:02:38;;;;;;;2.53;0.40;;;;;;;13.85;89.94;100710.63;4979590;28;20061;-67
2023/01/11 05:05:06;;;;;;;3.60;0.57;;;;;;;13.48;90.56;100709.53;4994503;28;20050;-66
2023/01/11 05:07:33;;;;;;;4.38;0.75;;;;;;;13.70;89.43;100716.75;4996873;28;20104;-66
2023/01/11 05:10:01;;;;;;;2.90;0.50;;;;;;;13.55;88.51;100720.88;4997132;28;20054;-66
2023/01/11 05:12:28;;;;;;;5.90;1.00;;;;;;;13.38;88.61;100732.03;5011597;28;20046;-56
2023/01/11 05:14:56;;;;;;;7.15;1.13;;;;;;;13.32;90.06;100745.22;4993804;28;20046;-57
2023/01/11 05:17:23;;;;;;;5.55;1.10;;;;;;;13.67;88.91;100748.66;4992769;28;20561;-65
2023/01/11 05:19:50;;;;;;;4.47;0.82;;;;;;;13.71;89.59;100740.50;4997236;28;20069;-65
2023/01/11 05:22:17;;;;;;;7.13;1.50;;;;;;;13.67;89.53;100742.34;4995954;28;20065;-64
2023/01/11 05:24:45;;;;;;;6.70;1.25;;;;;;;12.97;90.43;100754.72;4996172;28;20054;-66
2023/01/11 05:27:12;;;;;;;9.68;1.45;;;;;;;12.18;93.87;100767.28;4996674;28;20050;-58
2023/01/11 05:29:39;;;;;;;7.60;1.30;;;;;;;11.73;98.07;100796.22;5011856;28;20061;-57
2023/01/11 05:32:07;;;;;;;7.25;1.23;;;;;;;11.47;100.00;100782.31;4989288;28;20046;-59
2023/01/11 05:34:34;;;;;;;8.45;1.55;;;;;;;11.84;100.00;100781.00;4977269;28;20046;-59
2023/01/11 05:37:02;;;;;;;11.13;1.70;;;;;;;11.74;100.00;100779.34;5007270;28;20050;-59
2023/01/11 05:39:29;;;;;;;12.25;2.38;;;;;;;12.68;97.17;100790.53;4996542;28;20050;-58
2023/01/11 05:41:56;;;;;;;14.25;1.88;;;;;;;12.50;95.71;100797.19;5011344;28;20046;-58
2023/01/11 05:47:09;;;;;;;15.05;2.28;;;;;;;12.69;90.13;100808.78;4996103;28;20065;-59
2023/01/11 05:49:37;;;;;;;17.10;2.22;;;;;;;11.90;95.21;100816.44;4986991;28;20055;-66
2023/01/11 05:52:04;;;;;;;12.77;3.00;;;;;;;12.18;96.69;100819.75;4974394;28;20062;-66
2023/01/11 05:54:31;;;;;;;14.30;1.90;;;;;;;12.50;93.06;100799.16;4995911;28;20058;-66
2023/01/11 05:56:59;;;;;;;15.02;2.30;;;;;;;12.44;92.09;100801.28;5011132;28;20054;-66
2023/01/11 05:59:26;;;;;;;14.07;2.35;;;;;;;12.32;92.06;100810.19;4994708;28;20057;-57
2023/01/11 06:01:53;;;;;;;16.67;1.77;;;;;;;12.78;94.43;100815.09;4996035;28;20551;-66
2023/01/11 06:04:21;;;;;;;21.45;3.10;;;;;;;12.23;92.12;100825.94;4961997;28;20047;-67
2023/01/11 06:06:48;;;;;;;16.75;2.40;;;;;;;12.50;92.38;100822.06;4974532;28;20053;-62
2023/01/11 06:09:15;;;;;;;15.20;2.63;;;;;;;12.51;89.21;100829.22;4973747;28;20218;-65
2023/01/11 06:11:43;;;;;;;20.25;2.95;;;;;;;12.48;92.14;100833.44;4995814;28;20058;-67
2023/01/11 06:14:10;;;;;;;18.20;2.92;;;;;;;12.57;91.78;100830.69;4971792;28;20061;-66
2023/01/11 06:16:38;;;;;;;12.88;2.75;;;;;;;13.37;90.73;100825.28;4995057;28;20039;-65
2023/01/11 06:19:05;;;;;;;19.02;2.78;;;;;;;13.86;87.08;100836.88;4989059;28;20690;-66
2023/01/11 06:21:34;;;;;;;17.85;2.83;;;;;;;13.39;86.02;100845.13;4962683;28;20051;-65
2023/01/11 06:24:01;;;;;;;24.83;3.17;;;;;;;13.99;85.69;100849.66;4982089;28;20050;-60
2023/01/11 06:26:28;;;;;;;19.83;2.45;;;;;;;13.81;85.23;100840.59;4985773;28;20054;-59
2023/01/11 06:28:56;;;;;;;21.48;3.00;;;;;;;14.01;83.86;100848.19;4975067;28;20050;-59
2023/01/11 06:31:23;;;;;;;17.33;2.80;;;;;;;13.73;82.77;100854.50;4977078;28;20054;-57
2023/01/11 06:33:50;;;;;;;15.50;2.70;;;;;;;13.63;82.29;100854.84;4975231;28;20501;-60
2023/01/11 06:36:18;;;;;;;20.40;2.78;;;;;;;14.16;83.02;100853.16;4960842;28;20054;-57
2023/01/11 06:38:45;;;;;;;12.50;2.58;;;;;;;14.39;80.89;100862.84;5006242;28;20059;-58
2023/01/11 06:41:12;;;;;;;17.65;2.95;;;;;;;14.12;80.74;100874.34;4976858;28;20055;-56
2023/01/11 06:43:40;;;;;;;18.10;2.72;;;;;;;14.42;81.36;100881.56;4947582;29;20059;-60
2023/01/11 06:46:10;;;;;;;14.82;2.78;;;;;;;14.10;81.11;100878.63;4963937;28;20049;-65
2023/01/11 06:48:38;;;;;;;18.48;3.03;;;;;;;13.88;82.52;100887.97;4977595;28;20051;-67
2023/01/11 06:51:05;;;;;;;12.45;2.47;;;;;;;13.85;82.96;100891.41;4996849;28;20374;-66
2023/01/11 06:53:33;;;;;;;11.90;2.67;;;;;;;14.12;82.71;100896.50;4963780;28;20062;-60
2023/01/11 06:56:00;;;;;;;20.63;3.38;;;;;;;14.24;81.32;100898.59;4989124;28;20049;-60
2023/01/11 06:58:28;;;;;;;13.50;2.67;;;;;;;14.14;81.33;100905.31;4978690;28;20046;-57
2023/01/11 07:00:56;;;;;;;17.17;3.10;;;;;;;14.34;80.37;100915.69;4975245;28;20042;-60
2023/01/11 07:03:24;;;;;;;12.32;2.50;;;;;;;14.38;80.42;100899.22;4979504;28;20158;-61
2023/01/11 07:05:52;;;;;;;17.13;2.85;;;;;;;14.33;80.64;100900.19;4977352;28;20046;-59
2023/01/11 07:08:20;;;;;;;18.17;3.10;;;;;;;14.35;79.84;100909.00;4976118;28;20054;-59
2023/01/11 07:10:47;;;;;;;11.07;2.67;;;;;;;14.43;80.02;100899.84;4986854;28;20058;-59
2023/01/11 07:13:16;;;;;;;13.52;2.45;;;;;;;14.46;79.59;100912.19;4978802;28;20058;-59
2023/01/11 07:15:44;;;;;;;14.10;2.55;;;;;;;13.93;80.30;100909.94;4978981;28;20422;-59
2023/01/11 07:18:12;;;;;;;16.85;3.13;;;;;;;13.63;82.26;100907.44;4950509;28;20054;-58
2023/01/11 07:20:40;;;;;;;16.20;2.50;;;;;;;13.81;82.54;100909.03;4993627;28;20155;-60
2023/01/11 07:23:07;;;;;;;18.73;3.03;;;;;;;13.98;81.58;100917.28;4978537;28;20053;-60
2023/01/11 07:25:34;;;;;;;16.90;2.50;;;;;;;13.86;82.75;100914.41;4979096;28;20050;-57
2023/01/11 07:28:05;;;;;;;15.07;2.45;;;;;;;13.43;82.59;100920.00;4986140;28;20059;-66
2023/01/11 07:30:34;;;;;;;17.48;2.85;;;;;;;13.46;83.84;100925.69;4990103;28;20069;-68
2023/01/11 07:33:22;;;;;;;20.08;3.38;;;;;;;13.77;85.72;100928.25;4975766;28;20059;-67
2023/01/11 07:35:49;;;;;;;22.65;2.80;;;;;;;13.84;81.70;100927.75;4998279;28;20045;-66
2023/01/11 07:38:16;;;;;;;19.65;3.13;;;;;;;13.98;84.40;100934.69;4979151;28;20522;-58
2023/01/11 07:40:44;;;;;;;18.13;2.90;;;;;;;13.38;83.37;100942.31;4982346;28;20371;-56
2023/01/11 07:43:14;;;;;;;17.27;3.15;;;;;;;13.33;85.16;100945.25;4962006;28;20050;-60
2023/01/11 07:45:49;;;;;;;15.27;2.90;;;;;;;13.44;86.83;100957.63;4976818;28;20426;-60
2023/01/11 07:48:20;;;;;;;20.05;2.80;;;;;;;13.74;84.74;100966.88;4949692;28;20059;-67
2023/01/11 07:50:47;;;;;;;21.02;2.85;;;;;;;13.52;84.02;100973.41;4978437;28;20047;-69
2023/01/11 07:53:15;;;;;;;15.07;2.65;;;;;;;13.55;83.99;100990.16;4977987;28;20062;-67
2023/01/11 07:55:43;;;;;;;14.10;2.92;;;;;;;13.46;83.99;100989.34;4967987;28;20170;-69
2023/01/11 07:58:11;;;;;;;16.25;2.83;;;;;;;13.41;84.50;100995.03;4977819;28;20529;-67
2023/01/11 08:00:42;;;;;;;19.88;3.53;;;;;;;13.63;81.29;101004.31;4993580;28;20054;-67
2023/01/11 08:03:09;;;;;;;16.45;2.78;;;;;;;13.60;82.16;101013.28;4969610;28;20047;-68
2023/01/11 08:05:37;;;;;;;20.83;3.08;;;;;;;13.65;83.68;101018.66;4980308;28;20058;-68
2023/01/11 08:08:05;;;;;;;9.18;2.17;;;;;;;13.69;82.58;101014.91;4980481;28;20055;-69
2023/01/11 08:10:33;;;;;;;15.43;3.20;;;;;;;13.53;82.29;101014.56;4990145;28;20050;-70
2023/01/11 08:15:46;;;;;;;16.27;2.50;;;;;;;12.99;82.85;101031.72;4976153;28;20083;-69
2023/01/11 08:18:15;;;;;;;14.88;3.10;;;;;;;12.96;84.23;101042.63;4969337;28;20527;-68
2023/01/11 08:20:44;;;;;;;19.25;3.30;;;;;;;12.92;86.62;101036.13;4998158;28;20054;-67
2023/01/11 08:23:11;;;;;;;16.75;2.78;;;;;;;12.93;84.38;101052.38;4983380;28;20050;-67
2023/01/11 08:25:39;;;;;;;22.30;3.75;;;;;;;13.25;84.40;101045.66;4971703;28;20069;-69
2023/01/11 08:28:06;;;;;;;16.77;2.70;;;;;;;12.86;83.47;101053.97;4972965;28;20058;-69
2023/01/11 08:30:35;;;;;;;23.85;2.85;;;;;;;12.91;85.90;101062.13;4979755;28;20054;-68
2023/01/11 08:33:03;;;;;;;21.52;3.10;;;;;;;13.08;85.20;101063.03;4968089;28;20043;-67
2023/01/11 08:35:35;;;;;;;16.13;3.00;;;;;;;13.28;83.85;101064.38;4977389;28;20062;-68
2023/01/11 08:38:03;;;;;;;19.17;3.30;;;;;;;13.52;82.88;101073.84;4968831;28;20054;-66
2023/01/11 08:40:30;;;;;;;19.50;3.05;;;;;;;13.73;81.75;101075.97;4993741;28;20062;-67
2023/01/11 08:42:57;;;;;;;17.77;2.88;;;;;;;13.63;80.75;101074.34;4970576;28;20047;-66
2023/01/11 08:45:25;;;;;;;17.55;3.15;;;;;;;13.50;80.29;101069.75;4972081;28;20057;-65
2023/01/11 08:47:53;;;;;;;21.45;3.50;;;;;;;13.38;81.38;101086.19;4973703;28;20394;-66
2023/01/11 08:50:21;;;;;;;21.00;2.72;;;;;;;13.60;80.49;101088.81;4960611;28;20066;-66
2023/01/11 08:52:49;;;;;;;16.08;2.97;;;;;;;13.43;81.11;101084.09;4992183;28;20059;-66
2023/01/11 08:55:18;;;;;;;23.95;3.20;;;;;;;13.27;81.35;101084.84;4991025;28;20050;-66
2023/01/11 08:57:46;;;;;;;21.80;3.58;;;;;;;13.63;80.24;101085.41;4958917;28;20047;-66
2023/01/11 09:00:14;;;;;;;23.05;3.63;;;;;;;13.67;78.99;101093.88;4935253;28;20446;-67
2023/01/11 09:02:41;;;;;;;21.00;3.80;;;;;;;13.41;78.61;101097.44;4976631;28;20046;-67
2023/01/11 09:05:09;;;;;;;15.52;3.35;;;;;;;13.22;81.15;101102.44;4990928;28;20051;-67
2023/01/11 09:07:36;;;;;;;24.02;4.43;;;;;;;13.05;79.53;101099.63;4998612;28;20050;-69
2023/01/11 09:10:04;;;;;;;19.27;3.53;;;;;;;13.03;80.12;101109.34;4974034;28;20061;-66
2023/01/11 09:12:31;;;;;;;28.92;4.07;;;;;;;13.12;81.23;101111.03;4980924;28;20035;-66
2023/01/11 09:14:59;;;;;;;15.98;3.70;;;;;;;13.11;77.82;101111.34;4974298;28;20070;-66
2023/01/11 09:17:26;;;;;;;17.65;3.67;;;;;;;13.32;80.00;101123.44;4959917;28;20054;-66
2023/01/11 09:19:54;;;;;;;12.95;2.70;;;;;;;13.43;77.46;101138.59;4975787;28;20047;-66
2023/01/11 09:22:21;;;;;;;15.80;2.85;;;;;;;12.98;74.87;101140.72;4978697;28;20053;-67
2023/01/11 09:24:49;;;;;;;19.98;3.90;;;;;;;12.54;79.36;101140.81;4991113;28;20413;-66
2023/01/11 09:27:16;;;;;;;20.33;3.30;;;;;;;12.81;79.03;101148.94;4991642;28;20051;-67
2023/01/11 09:29:44;;;;;;;16.48;3.42;;;;;;;13.09;78.25;101146.81;4974371;28;20063;-67
2023/01/11 09:32:12;;;;;;;18.25;3.22;;;;;;;12.94;77.98;101148.00;4979549;28;20047;-68
2023/01/11 09:34:41;;;;;;;16.83;2.80;;;;;;;12.41;76.95;101152.78;4969068;28;20062;-66
2023/01/11 09:37:09;;;;;;;14.25;2.78;;;;;;;13.07;77.20;101160.13;4985557;28;20053;-67
2023/01/11 09:39:37;;;;;;;21.70;3.83;;;;;;;12.45;77.80;101168.38;4990835;28;20058;-69
2023/01/11 09:42:05;;;;;;;22.13;3.90;;;;;;;12.48;78.29;101167.75;4976516;28;20057;-67
2023/01/11 09:44:44;;;;;;;15.23;2.63;;;;;;;12.76;77.16;101175.91;4989101;28;20423;-67
2023/01/11 09:47:30;;;;;;;15.88;3.47;;;;;;;12.73;77.00;101163.50;4962954;28;20047;-67
2023/01/11 09:50:02;;;;;;;14.77;3.15;;;;;;;12.63;75.24;101171.25;4988271;28;20057;-65
2023/01/11 09:52:38;;;;;;;16.38;3.40;;;;;;;12.64;78.88;101181.19;4971378;28;20046;-66
2023/01/11 09:55:14;;;;;;;13.30;2.40;;;;;;;13.38;77.28;101205.16;4982551;28;20043;-66
2023/01/11 09:58:01;;;;;;;13.57;2.70;;;;;;;13.28;71.22;101200.75;4994332;28;20055;-66
2023/01/11 10:00:48;;;;;;;11.82;2.33;;;;;;;12.81;73.60;101197.88;4973128;28;20054;-67
2023/01/11 10:03:38;;;;;;;13.85;2.70;;;;;;;12.99;76.27;101211.47;4956052;28;20047;-65
2023/01/11 10:06:17;;;;;;;13.48;2.65;;;;;;;13.15;75.66;101209.13;4991887;28;20511;-67
2023/01/11 10:08:49;;;;;;;15.15;2.97;;;;;;;12.44;73.94;101230.31;4945245;28;20384;-66
2023/01/11 10:11:50;;;;;;;16.75;2.55;;;;;;;12.72;76.59;101222.72;4976224;28;20054;-66
2023/01/11 10:14:52;;;;;;;16.90;3.05;;;;;;;12.39;75.36;101224.09;4988553;28;20569;-66
2023/01/11 10:17:49;;;;;;;16.23;2.60;;;;;;;12.60;76.13;101222.47;4989830;28;20054;-67
2023/01/11 10:20:45;;;;;;;13.98;2.38;;;;;;;12.74;74.67;101212.16;5001912;28;20062;-68
2023/01/11 10:23:27;;;;;;;15.07;3.00;;;;;;;13.21;75.23;101216.16;4974143;28;20617;-68
2023/01/11 10:25:57;;;;;;;17.55;2.92;;;;;;;13.32;74.18;101214.72;4977705;28;20055;-68
2023/01/11 10:28:44;;;;;;;;;;;;;;;12.62;72.83;101213.84;4990363;28;20050;-67
2023/01/11 10:31:43;;;;;;;16.50;2.97;;;;;;;13.06;74.74;101211.03;4988134;28;19922;-66
2023/01/11 10:34:37;;;;;;;14.45;2.60;;;;;;;13.24;75.01;101218.28;4959539;28;20050;-67
2023/01/11 10:43:11;;;;;;;17.45;2.50;;;;;;;12.79;73.47;101217.53;4976638;28;20113;-65
2023/01/11 10:45:43;;;;;;;18.50;3.40;;;;;;;13.30;75.71;101204.00;4974941;28;20061;-68
2023/01/11 10:48:23;;;;;;;17.55;3.22;;;;;;;13.40;74.42;101203.72;4973087;28;20044;-63
2023/01/11 10:51:30;;;;;;;14.90;2.80;;;;;;;13.09;71.16;101204.88;4958402;28;20042;-67
2023/01/11 10:54:12;;;;;;;17.23;3.10;;;;;;;12.77;74.87;101216.22;4972236;28;20517;-65
2023/01/11 10:56:54;;;;;;;16.20;3.70;;;;;;;12.92;73.73;101224.13;5008005;28;20066;-65
2023/01/11 10:59:49;;;;;;;24.00;4.07;;;;;;;12.88;74.79;101232.25;4990576;28;20055;-66
2023/01/11 11:02:37;;;;;;;14.23;2.47;;;;;;;13.54;74.62;101240.41;4965579;28;20054;-66
2023/01/11 11:05:10;;;;;;;22.85;3.42;;;;;;;13.56;71.69;101243.66;4975618;28;20055;-66
2023/01/11 11:08:08;;;;;;;17.30;3.40;;;;;;;12.93;72.11;101251.47;4960022;28;20041;-67
2023/01/11 11:10:56;;;;;;;18.27;3.72;;;;;;;12.62;73.40;101253.38;4978832;28;20045;-65
2023/01/11 11:13:36;;;;;;;20.65;3.55;;;;;;;12.53;75.59;101249.72;4979122;28;20065;-65
2023/01/11 11:16:18;;;;;;;22.23;3.70;;;;;;;12.83;73.36;101262.75;4992749;28;20054;-66
2023/01/11 11:18:47;;;;;;;19.75;3.50;;;;;;;12.51;72.15;101249.22;4962625;28;20051;-65
2023/01/11 11:21:22;;;;;;;17.30;3.13;;;;;;;12.55;76.34;101252.16;4978715;28;20055;-65
2023/01/11 11:24:02;;;;;;;20.73;3.30;;;;;;;13.32;74.93;101229.38;4978029;28;20058;-67
2023/01/11 11:26:36;;;;;;;14.75;2.92;;;;;;;13.74;72.31;101240.94;4964441;28;20054;-65
2023/01/11 11:29:06;;;;;;;19.33;3.97;;;;;;;13.83;71.41;101250.06;4961508;28;20073;-68
2023/01/11 11:31:41;;;;;;;21.58;4.20;;;;;;;13.51;70.90;101256.84;4978306;28;20050;-64
2023/01/11 11:34:15;;;;;;;20.15;3.53;;;;;;;12.63;71.08;101259.69;4975882;28;20471;-64
2023/01/11 11:36:44;;;;;;;15.38;3.83;;;;;;;12.38;72.51;101269.41;4993413;28;20046;-65
2023/01/11 11:39:28;;;;;;;19.98;4.03;;;;;;;12.26;75.10;101269.97;4988241;28;20050;-67
2023/01/11 11:42:04;;;;;;;19.02;4.00;;;;;;;12.77;75.15;101266.81;4990466;28;20063;-64
2023/01/11 11:44:31;;;;;;;31.17;8.48;;;;;;;13.30;75.00;101261.28;4958124;28;20058;-65
2023/01/11 11:47:00;;;;;;;27.20;7.82;;;;;;;13.20;69.57;101269.84;4959887;28;20502;-66
2023/01/11 11:49:38;;;;;;;24.42;7.00;;;;;;;12.84;70.70;101264.41;4972445;28;20059;-66
2023/01/11 11:52:06;;;;;;;21.27;4.78;;;;;;;13.11;72.92;101269.00;4989901;28;20061;-67
2023/01/11 11:54:36;;;;;;;18.70;5.97;;;;;;;13.03;70.61;101267.81;4992848;28;20061;-68
2023/01/11 11:57:14;;;;;;;20.83;4.07;;;;;;;13.42;72.14;101269.81;4995378;28;20055;-67
2023/01/11 11:59:46;;;;;;;23.27;8.15;;;;;;;13.54;67.51;101275.56;4955759;28;20043;-66
2023/01/11 12:02:35;;;;;;;17.55;5.35;;;;;;;13.63;69.91;101270.88;4995229;28;20054;-69
2023/01/11 12:05:08;;;;;;;20.10;5.07;;;;;;;13.40;68.71;101277.63;4991117;28;20050;-66
2023/01/11 12:07:42;;;;;;;18.33;4.13;;;;;;;13.51;68.37;101279.78;4998977;28;20043;-66
2023/01/11 12:10:23;;;;;;;22.88;4.22;;;;;;;13.38;69.23;101277.13;4993029;28;20054;-67